Pierre, South Dakota
Current Conditions -  °F | °C
As of 5:53 AM on Friday 28 Nov 2014 (Local Time) from KPIR Reporting Station
Clear Clear  
Wind Chill: -11°   Ceiling: Unl
Heat Index: -7°   Visibility: 10mi
Dew Point: -9°   Wind: 5mph
Humidity: 88%   Direction: 70°ENE
Pressure: 29.74"   Gusts: NA
Location:  44.37°N, 100.35°W
Report Text: KPIR 281153Z AUTO 07004KT 10SM CLR M07/M09 A2974 RMK AO2 SLP096 T10721089 11061 21078 58018
Loading
Personal Weather Stations






























Interactive Weather Map New forecast layout! Learn more

10-Day Weather Forecast

Advertisements
Track Severe Weather on mobile